Portada
METAR-TAF:

METAR-TAF

Aeropuertos :

Lake Tahoe Airport

South Lake Tahoe, California, Estados Unidos

latitud: 38-53-38N, longitud: 119-59-43W, altitud: 1909 m

Observación

El informe se hizo hace 45 minutos, a las 10:53 UTC
Viento 4 kt del sur-suroeste
Temperatura 0°C
Humedad 74%
Presión 1020 hPa
Visibilidad: 16.1 km
Cielo despejado

METAR: KTVL 241053Z AUTO 20004KT 10SM CLR 00/M04 A3013 RMK AO2 SLP165 T00001044

Hora: 04:38 (11:38 UTC)

Pronóstico

El informe se hizo hace 6 horas y 18 minutos, a las 05:20 UTC
Pronóstico válido del 24 a las 06 UTC al 25 a las 06 UTC
Viento 3 kt con dirección variable
Visibilidad: 10 km
Cielo despejado
A partir de las 24 a las 1800 UTC
Viento 7 kt del noreste
Visibilidad: 10 km
Cielo despejado
A partir de las 25 a las 0200 UTC
Viento 3 kt con dirección variable
Visibilidad: 10 km
Cielo despejado

TAF: KTVL 240520Z 2406/2506 VRB03KT P6SM SKC FM241800 04007KT P6SM SKC FM250200 VRB03KT P6SM SKC

Observaciones y pronósticos meteorológicos de más de 4000 aeropuertos (mensajes METAR y TAF).

Los puntos amarillos y rojos representan las estaciones disponibles.

Ponga el ratón en el punto deseado para ver el nombre de la estación.

Haga clic para ver las observaciones y los pronósticos meteorológicos.

Para cambiar el mapa : haga clic en los botones verdes con una cruz de color negro para hacer un zoom, en el botón verde con un guión para alejar o en las flechas verdes para mapas adyacentes.


METAR-TAF: